createdAt,value
2018-12-24T00:00:56.443Z,7.85
2018-12-24T00:01:56.910Z,7.79
2018-12-24T00:02:57.480Z,7.81
2018-12-24T00:03:57.949Z,7.74
2018-12-24T00:04:59.557Z,7.78
2018-12-24T00:06:00.032Z,7.89
2018-12-24T00:07:00.578Z,7.75
2018-12-24T00:08:01.059Z,7.77
2018-12-24T00:09:01.616Z,7.85
2018-12-24T00:10:02.092Z,7.87
2018-12-24T00:11:02.655Z,7.94
2018-12-24T00:12:07.006Z,7.87
2018-12-24T00:13:03.691Z,7.79
2018-12-24T00:14:04.161Z,7.84
2018-12-24T00:15:04.727Z,7.82
2018-12-24T00:16:05.203Z,7.89
2018-12-24T00:17:05.764Z,7.75
2018-12-24T00:18:06.250Z,7.81
2018-12-24T00:19:06.802Z,7.78
2018-12-24T00:20:07.274Z,7.81
2018-12-24T00:21:07.843Z,7.82
2018-12-24T00:22:08.331Z,7.81
2018-12-24T00:23:09.886Z,7.87
2018-12-24T00:24:10.370Z,7.74
2018-12-24T00:25:10.919Z,7.87
2018-12-24T00:26:11.408Z,7.78
2018-12-24T00:27:11.956Z,7.78
2018-12-24T00:28:12.438Z,7.78
2018-12-24T00:29:12.995Z,7.79
2018-12-24T00:30:13.472Z,7.77
2018-12-24T00:31:14.034Z,7.90
2018-12-24T00:32:14.519Z,7.69
2018-12-24T00:33:15.075Z,7.81
2018-12-24T00:34:15.551Z,7.79
2018-12-24T00:35:16.108Z,7.71
2018-12-24T00:36:16.584Z,7.82
2018-12-24T00:37:17.148Z,7.79
2018-12-24T00:38:17.622Z,7.74
2018-12-24T00:39:18.186Z,7.71
2018-12-24T00:40:18.669Z,7.77
2018-12-24T00:41:19.225Z,7.81
2018-12-24T00:42:19.730Z,7.77
2018-12-24T00:43:20.258Z,7.77
2018-12-24T00:44:20.736Z,7.82
2018-12-24T00:45:21.296Z,7.81
2018-12-24T00:46:21.774Z,7.87
2018-12-24T00:47:22.335Z,7.82
2018-12-24T00:48:22.827Z,7.75
2018-12-24T00:49:23.370Z,7.78
2018-12-24T00:50:23.873Z,7.81
2018-12-24T00:51:24.413Z,7.81
2018-12-24T00:52:24.889Z,7.87
2018-12-24T00:53:25.625Z,7.81
2018-12-24T00:54:26.106Z,7.85
2018-12-24T00:55:26.692Z,7.78
2018-12-24T00:56:27.167Z,7.81
2018-12-24T00:57:27.727Z,7.81
2018-12-24T00:58:28.222Z,7.82
2018-12-24T00:59:28.766Z,7.78
2018-12-24T01:00:29.249Z,7.75
2018-12-24T01:01:29.802Z,7.78
2018-12-24T01:02:30.291Z,7.82
2018-12-24T01:03:30.849Z,7.87
2018-12-24T01:04:31.328Z,7.85
2018-12-24T01:05:31.886Z,7.85
2018-12-24T01:06:32.354Z,7.85
2018-12-24T01:07:32.954Z,7.94
2018-12-24T01:08:33.400Z,7.87
2018-12-24T01:09:33.960Z,7.87
2018-12-24T01:10:34.442Z,7.82
2018-12-24T01:11:35.006Z,7.87
2018-12-24T01:12:35.479Z,7.82
2018-12-24T01:13:36.035Z,7.85
2018-12-24T01:14:36.510Z,7.94
2018-12-24T01:15:37.075Z,7.85
2018-12-24T01:16:37.555Z,7.90
2018-12-24T01:17:38.103Z,7.85
2018-12-24T01:18:38.596Z,7.85
2018-12-24T01:19:39.149Z,7.85
2018-12-24T01:20:39.632Z,7.89
2018-12-24T01:21:40.183Z,7.93
2018-12-24T01:22:40.652Z,7.85
2018-12-24T01:23:41.222Z,7.93
2018-12-24T01:24:41.707Z,7.85
2018-12-24T01:25:43.286Z,7.90
2018-12-24T01:26:43.770Z,7.90
2018-12-24T01:27:44.319Z,7.92
2018-12-24T01:28:44.809Z,7.87
2018-12-24T01:29:45.359Z,7.99
2018-12-24T01:30:45.838Z,7.93
2018-12-24T01:31:46.395Z,8.04
2018-12-24T01:32:46.885Z,8.10
2018-12-24T01:33:47.431Z,8.07
2018-12-24T01:34:47.927Z,7.96
2018-12-24T01:35:48.471Z,7.90
2018-12-24T01:36:48.949Z,7.96
2018-12-24T01:37:49.505Z,7.96
2018-12-24T01:38:49.991Z,7.87
2018-12-24T01:39:50.546Z,7.96
2018-12-24T01:40:51.027Z,7.97
2018-12-24T01:41:51.583Z,8.10
2018-12-24T01:42:52.077Z,7.97
2018-12-24T01:43:52.620Z,7.97
2018-12-24T01:44:53.104Z,8.07
2018-12-24T01:45:53.658Z,8.02
2018-12-24T01:46:54.150Z,8.00
2018-12-24T01:47:54.701Z,8.08
2018-12-24T01:48:55.180Z,8.04
2018-12-24T01:49:57.769Z,8.04
2018-12-24T01:50:58.239Z,8.00
2018-12-24T01:52:00.850Z,8.03
2018-12-24T01:53:01.328Z,8.08
2018-12-24T01:54:01.888Z,8.02
2018-12-24T01:55:02.360Z,7.97
2018-12-24T01:56:03.000Z,7.97
2018-12-24T01:57:03.400Z,8.03
2018-12-24T01:58:12.570Z,8.00
2018-12-24T01:59:13.056Z,7.99
2018-12-24T02:00:13.598Z,8.04
2018-12-24T02:01:14.074Z,8.03
2018-12-24T02:02:16.685Z,8.00
2018-12-24T02:03:17.163Z,7.99
2018-12-24T02:04:17.725Z,8.03
2018-12-24T02:05:18.215Z,8.07
2018-12-24T02:06:20.814Z,8.04
2018-12-24T02:07:21.288Z,8.10
2018-12-24T02:08:29.525Z,8.04
2018-12-24T02:09:30.010Z,8.11
2018-12-24T02:10:30.566Z,7.90
2018-12-24T02:11:31.047Z,7.96
2018-12-24T02:12:31.603Z,7.93
2018-12-24T02:13:32.087Z,8.03
2018-12-24T02:14:32.641Z,8.15
2018-12-24T02:15:33.114Z,8.10
2018-12-24T02:16:33.681Z,8.12
2018-12-24T02:17:34.169Z,8.12
2018-12-24T02:18:34.713Z,8.03
2018-12-24T02:19:35.187Z,8.12
2018-12-24T02:20:36.775Z,8.04
2018-12-24T02:21:37.250Z,8.03
2018-12-24T02:22:38.847Z,8.10
2018-12-24T02:23:39.316Z,8.07
2018-12-24T02:24:39.876Z,8.10
2018-12-24T02:25:40.355Z,8.14
2018-12-24T02:26:40.907Z,8.14
2018-12-24T02:27:41.407Z,8.11
2018-12-24T02:28:41.950Z,8.11
2018-12-24T02:29:42.443Z,8.07
2018-12-24T02:30:42.996Z,8.10
2018-12-24T02:31:43.467Z,8.04
2018-12-24T02:32:44.033Z,8.14
2018-12-24T02:33:44.512Z,8.04
2018-12-24T02:34:45.075Z,8.08
2018-12-24T02:35:45.542Z,8.28
2018-12-24T02:36:47.133Z,8.10
2018-12-24T02:37:47.617Z,8.08
2018-12-24T02:38:48.268Z,8.03
2018-12-24T02:39:48.748Z,8.10
2018-12-24T02:40:49.295Z,8.07
2018-12-24T02:41:49.784Z,8.20
2018-12-24T02:42:52.919Z,8.17
2018-12-24T02:43:52.968Z,8.08
2018-12-24T02:44:54.568Z,8.08
2018-12-24T02:45:55.167Z,8.08
2018-12-24T02:47:04.609Z,8.10
2018-12-24T02:48:05.088Z,8.07
2018-12-24T02:49:05.635Z,8.10
2018-12-24T02:50:06.112Z,8.07
2018-12-24T02:51:07.701Z,8.07
2018-12-24T02:52:08.170Z,8.07
2018-12-24T02:53:16.509Z,8.11
2018-12-24T02:54:16.999Z,8.21
2018-12-24T02:55:18.582Z,8.08
2018-12-24T02:56:19.075Z,8.08
2018-12-24T02:57:19.604Z,8.07
2018-12-24T02:58:20.087Z,8.08
2018-12-24T02:59:21.662Z,8.11
2018-12-24T03:00:22.152Z,8.11
2018-12-24T03:01:24.749Z,8.07
2018-12-24T03:02:25.215Z,8.12
2018-12-24T03:03:26.800Z,8.12
2018-12-24T03:04:27.286Z,8.12
2018-12-24T03:05:35.518Z,8.10
2018-12-24T03:06:36.029Z,8.11
2018-12-24T03:07:36.561Z,8.21
2018-12-24T03:08:37.070Z,8.12
2018-12-24T03:09:44.556Z,8.12
2018-12-24T03:10:45.035Z,8.21
2018-12-24T03:11:46.612Z,8.10
2018-12-24T03:12:47.091Z,8.12
2018-12-24T03:13:47.759Z,8.14
2018-12-24T03:14:48.217Z,8.21
2018-12-24T03:15:48.876Z,8.08
2018-12-24T03:16:49.362Z,8.10
2018-12-24T03:17:50.020Z,8.21
2018-12-24T03:18:50.674Z,8.18
2018-12-24T03:19:52.195Z,8.20
2018-12-24T03:20:52.666Z,8.20
2018-12-24T03:21:53.222Z,8.08
2018-12-24T03:22:53.703Z,8.12
2018-12-24T03:23:55.283Z,8.21
2018-12-24T03:24:55.758Z,8.18
2018-12-24T03:26:04.106Z,8.21
2018-12-24T03:27:04.583Z,8.15
2018-12-24T03:28:06.166Z,8.17
2018-12-24T03:29:06.642Z,8.14
2018-12-24T03:30:07.198Z,8.18
2018-12-24T03:31:07.694Z,8.22
2018-12-24T03:32:08.247Z,8.20
2018-12-24T03:33:08.726Z,8.14
2018-12-24T03:34:09.278Z,8.12
2018-12-24T03:35:09.760Z,8.14
2018-12-24T03:36:10.318Z,8.14
2018-12-24T03:37:10.787Z,8.12
2018-12-24T03:38:11.355Z,8.30
2018-12-24T03:39:11.839Z,8.33
2018-12-24T03:40:12.395Z,8.15
2018-12-24T03:41:12.876Z,8.17
2018-12-24T03:42:13.357Z,8.20
2018-12-24T03:43:13.844Z,8.21
2018-12-24T03:44:14.463Z,8.18
2018-12-24T03:45:14.941Z,8.29
2018-12-24T03:46:15.517Z,8.29
2018-12-24T03:47:16.014Z,8.22
2018-12-24T03:48:16.543Z,8.18
2018-12-24T03:49:17.031Z,8.25
2018-12-24T03:50:17.577Z,8.25
2018-12-24T03:51:18.070Z,8.17
2018-12-24T03:52:18.622Z,8.17
2018-12-24T03:53:19.108Z,8.21
2018-12-24T03:54:20.681Z,8.17
2018-12-24T03:55:21.171Z,8.11
2018-12-24T03:56:22.742Z,8.25
2018-12-24T03:57:23.236Z,8.18
2018-12-24T03:58:25.986Z,8.11
2018-12-24T03:59:26.475Z,8.08
2018-12-24T04:00:27.992Z,8.26
2018-12-24T04:01:28.486Z,8.15
2018-12-24T04:02:29.032Z,8.18
2018-12-24T04:03:29.526Z,8.21
2018-12-24T04:04:30.069Z,8.18
2018-12-24T04:05:30.553Z,8.20
2018-12-24T04:06:31.106Z,8.25
2018-12-24T04:07:31.587Z,8.22
2018-12-24T04:08:33.163Z,8.18
2018-12-24T04:09:33.652Z,8.22
2018-12-24T04:10:34.204Z,8.14
2018-12-24T04:11:34.696Z,8.14
2018-12-24T04:12:43.025Z,8.15
2018-12-24T04:13:43.499Z,8.20
2018-12-24T04:14:44.057Z,8.20
2018-12-24T04:15:44.542Z,8.14
2018-12-24T04:16:45.158Z,8.20
2018-12-24T04:17:45.594Z,8.20
2018-12-24T04:18:47.164Z,8.29
2018-12-24T04:19:47.639Z,8.25
2018-12-24T04:20:50.250Z,8.25
2018-12-24T04:21:50.734Z,8.14
2018-12-24T04:22:52.311Z,8.29
2018-12-24T04:23:52.801Z,8.40
2018-12-24T04:25:01.025Z,8.30
2018-12-24T04:26:01.529Z,8.36
2018-12-24T04:27:02.063Z,8.29
2018-12-24T04:28:02.549Z,8.26
2018-12-24T04:29:03.102Z,8.30
2018-12-24T04:30:03.593Z,8.25
2018-12-24T04:31:04.066Z,8.29
2018-12-24T04:32:04.581Z,8.26
2018-12-24T04:33:05.185Z,8.22
2018-12-24T04:34:05.668Z,8.29
2018-12-24T04:35:06.221Z,8.14
2018-12-24T04:36:06.705Z,8.17
2018-12-24T04:37:07.259Z,8.20
2018-12-24T04:38:07.742Z,8.21
2018-12-24T04:39:08.298Z,8.20
2018-12-24T04:40:08.945Z,8.20
2018-12-24T04:41:09.338Z,8.21
2018-12-24T04:42:09.838Z,8.18
2018-12-24T04:43:10.488Z,8.17
2018-12-24T04:44:10.968Z,8.20
2018-12-24T04:45:11.515Z,8.21
2018-12-24T04:46:11.996Z,8.28
2018-12-24T04:47:12.558Z,8.18
2018-12-24T04:48:13.045Z,8.18
2018-12-24T04:49:13.692Z,8.18
2018-12-24T04:50:14.173Z,8.20
2018-12-24T04:51:14.827Z,8.11
2018-12-24T04:52:15.325Z,8.22
2018-12-24T04:53:15.974Z,8.17
2018-12-24T04:54:16.470Z,8.22
2018-12-24T04:55:17.109Z,8.18
2018-12-24T04:56:17.596Z,8.14
2018-12-24T04:57:18.261Z,8.15
2018-12-24T04:58:18.732Z,8.30
2018-12-24T04:59:19.304Z,8.32
2018-12-24T05:00:19.778Z,8.30
2018-12-24T05:01:20.438Z,8.28
2018-12-24T05:02:20.921Z,8.20
2018-12-24T05:03:21.467Z,8.26
2018-12-24T05:04:21.945Z,8.18
2018-12-24T05:05:22.512Z,8.26
2018-12-24T05:06:22.993Z,8.26
2018-12-24T05:07:23.656Z,8.22
2018-12-24T05:08:24.127Z,8.08
2018-12-24T05:09:24.793Z,8.15
2018-12-24T05:10:25.270Z,8.17
2018-12-24T05:11:25.925Z,8.07
2018-12-24T05:12:26.400Z,8.03
2018-12-24T05:13:27.073Z,8.07
2018-12-24T05:14:27.546Z,8.04
2018-12-24T05:15:28.107Z,8.10
2018-12-24T05:16:28.584Z,8.11
2018-12-24T05:17:29.247Z,8.11
2018-12-24T05:18:29.732Z,8.07
2018-12-24T05:19:30.389Z,8.11
2018-12-24T05:20:30.872Z,8.03
2018-12-24T05:21:31.529Z,7.99
2018-12-24T05:22:32.002Z,8.14
2018-12-24T05:23:32.666Z,8.07
2018-12-24T05:24:33.151Z,8.11
2018-12-24T05:25:33.807Z,8.12
2018-12-24T05:26:34.284Z,8.08
2018-12-24T05:27:34.950Z,8.07
2018-12-24T05:28:35.539Z,8.12
2018-12-24T05:29:36.085Z,8.10
2018-12-24T05:30:36.561Z,8.12
2018-12-24T05:31:37.224Z,8.08
2018-12-24T05:32:37.704Z,8.10
2018-12-24T05:33:38.364Z,8.03
2018-12-24T05:34:38.835Z,8.08
2018-12-24T05:35:39.443Z,8.07
2018-12-24T05:36:39.932Z,8.11
2018-12-24T05:37:40.492Z,8.08
2018-12-24T05:38:40.957Z,8.14
2018-12-24T05:39:41.513Z,8.08
2018-12-24T05:40:41.996Z,8.03
2018-12-24T05:41:42.551Z,8.08
2018-12-24T05:42:43.023Z,8.21
2018-12-24T05:43:49.452Z,8.20
2018-12-24T05:44:44.063Z,8.11
2018-12-24T05:45:44.626Z,8.11
2018-12-24T05:46:45.109Z,8.17
2018-12-24T05:47:45.664Z,8.11
2018-12-24T05:48:46.150Z,8.11
2018-12-24T05:49:46.701Z,8.07
2018-12-24T05:50:47.186Z,8.04
2018-12-24T05:51:47.738Z,8.10
2018-12-24T05:52:48.248Z,7.96
2018-12-24T05:53:48.775Z,7.94
2018-12-24T05:54:49.254Z,8.04
2018-12-24T05:55:49.814Z,8.03
2018-12-24T05:56:50.298Z,8.02
2018-12-24T05:57:50.851Z,7.99
2018-12-24T05:58:51.329Z,7.92
2018-12-24T05:59:51.887Z,7.85
2018-12-24T06:00:52.368Z,7.89
2018-12-24T06:01:52.933Z,7.97
2018-12-24T06:02:53.422Z,7.90
2018-12-24T06:03:53.972Z,7.79
2018-12-24T06:04:54.445Z,7.84
2018-12-24T06:05:55.006Z,7.78
2018-12-24T06:06:55.482Z,7.82
2018-12-24T06:07:57.066Z,7.77
2018-12-24T06:08:57.543Z,7.79
2018-12-24T06:09:58.110Z,7.82
2018-12-24T06:10:58.585Z,7.79
2018-12-24T06:11:59.139Z,7.87
2018-12-24T06:12:59.619Z,7.82
2018-12-24T06:14:00.181Z,7.84
2018-12-24T06:15:00.651Z,7.90
2018-12-24T06:16:01.219Z,7.78
2018-12-24T06:17:01.710Z,7.90
2018-12-24T06:18:02.253Z,7.77
2018-12-24T06:19:02.739Z,7.87
2018-12-24T06:20:03.293Z,7.81
2018-12-24T06:21:03.769Z,7.96
2018-12-24T06:22:04.329Z,7.87
2018-12-24T06:23:04.801Z,7.90
2018-12-24T06:24:05.367Z,7.82
2018-12-24T06:25:05.839Z,7.78
2018-12-24T06:26:06.403Z,7.81
2018-12-24T06:27:06.893Z,7.74
2018-12-24T06:28:07.447Z,7.74
2018-12-24T06:29:07.922Z,7.74
2018-12-24T06:30:08.484Z,7.72
2018-12-24T06:31:08.959Z,7.67
2018-12-24T06:32:09.519Z,7.72
2018-12-24T06:33:10.005Z,7.74
2018-12-24T06:34:10.559Z,7.72
2018-12-24T06:35:11.029Z,7.72
2018-12-24T06:36:11.595Z,7.67
2018-12-24T06:37:12.064Z,7.63
2018-12-24T06:38:14.681Z,7.74
2018-12-24T06:39:15.151Z,7.56
2018-12-24T06:40:16.757Z,7.59
2018-12-24T06:41:17.248Z,7.60
2018-12-24T06:42:18.309Z,7.58
2018-12-24T06:43:18.276Z,7.63
2018-12-24T06:44:18.832Z,7.56
2018-12-24T06:45:19.321Z,7.66
2018-12-24T06:46:20.910Z,7.60
2018-12-24T06:47:21.393Z,7.63
2018-12-24T06:48:21.983Z,7.62
2018-12-24T06:49:22.459Z,7.59
2018-12-24T06:50:24.103Z,7.56
2018-12-24T06:51:24.601Z,7.40
2018-12-24T06:52:25.244Z,7.35
2018-12-24T06:53:25.739Z,7.35
2018-12-24T06:54:26.285Z,7.34
2018-12-24T06:55:26.766Z,7.37
2018-12-24T06:56:27.321Z,7.31
2018-12-24T06:57:27.802Z,7.31
2018-12-24T06:58:28.357Z,7.27
2018-12-24T06:59:28.817Z,7.24
2018-12-24T07:00:29.305Z,7.23
2018-12-24T07:01:31.869Z,7.27
2018-12-24T07:02:32.342Z,7.23
2018-12-24T07:03:32.836Z,7.24
2018-12-24T07:04:33.312Z,7.22
2018-12-24T07:05:33.797Z,7.26
2018-12-24T07:06:34.364Z,7.26
2018-12-24T07:07:34.845Z,7.22
2018-12-24T07:08:35.308Z,7.16
2018-12-24T07:09:35.786Z,7.08
2018-12-24T07:10:36.271Z,7.05
2018-12-24T07:11:36.764Z,6.98
2018-12-24T07:12:37.255Z,6.94
2018-12-24T07:13:37.785Z,6.87
2018-12-24T07:14:38.261Z,6.95
2018-12-24T07:15:38.824Z,6.84
2018-12-24T07:16:39.300Z,6.80
2018-12-24T07:17:39.818Z,6.81
2018-12-24T07:18:40.306Z,6.80
2018-12-24T07:19:40.891Z,6.83
2018-12-24T07:20:41.340Z,6.77
2018-12-24T07:21:41.847Z,6.71
2018-12-24T07:22:42.371Z,6.68
2018-12-24T07:23:42.886Z,6.62
2018-12-24T07:24:43.427Z,6.62
2018-12-24T07:25:51.520Z,6.65
2018-12-24T07:26:51.994Z,6.54
2018-12-24T07:27:52.576Z,6.65
2018-12-24T07:28:59.069Z,6.56
2018-12-24T07:29:53.629Z,6.54
2018-12-24T07:30:54.102Z,6.53
2018-12-24T07:31:54.648Z,6.56
2018-12-24T07:32:55.129Z,6.58
2018-12-24T07:33:55.698Z,6.61
2018-12-24T07:34:56.188Z,6.63
2018-12-24T07:35:56.727Z,6.62
2018-12-24T07:36:57.213Z,6.62
2018-12-24T07:37:57.867Z,6.50
2018-12-24T07:38:58.377Z,6.50
2018-12-24T07:39:58.908Z,6.46
2018-12-24T07:40:59.401Z,6.47
2018-12-24T07:41:59.874Z,6.47
2018-12-24T07:43:00.595Z,6.51
2018-12-24T07:44:01.060Z,6.47
2018-12-24T07:45:01.540Z,6.47
2018-12-24T07:46:02.024Z,6.44
2018-12-24T07:47:02.522Z,6.48
2018-12-24T07:48:03.006Z,6.48
2018-12-24T07:49:03.488Z,6.50
2018-12-24T07:50:03.958Z,6.43
2018-12-24T07:51:04.436Z,6.32
2018-12-24T07:52:04.921Z,6.44
2018-12-24T07:53:05.418Z,6.30
2018-12-24T07:54:05.895Z,6.29
2018-12-24T07:55:06.400Z,6.29
2018-12-24T07:56:07.002Z,6.33
2018-12-24T07:57:07.498Z,6.36
2018-12-24T07:58:08.039Z,6.28
2018-12-24T07:59:08.541Z,6.35
2018-12-24T08:00:09.073Z,6.22
2018-12-24T08:01:09.563Z,6.19
2018-12-24T08:02:10.112Z,6.22
2018-12-24T08:03:10.606Z,6.13
2018-12-24T08:04:13.109Z,6.19
2018-12-24T08:05:13.590Z,6.28
2018-12-24T08:06:14.134Z,6.16
2018-12-24T08:07:14.632Z,6.22
2018-12-24T08:08:15.093Z,6.16
2018-12-24T08:09:15.599Z,6.13
2018-12-24T08:10:16.086Z,6.14
2018-12-24T08:11:16.568Z,6.13
2018-12-24T08:12:17.097Z,6.25
2018-12-24T08:13:17.575Z,6.13
2018-12-24T08:14:18.049Z,6.13
2018-12-24T08:15:18.607Z,6.13
2018-12-24T08:16:19.088Z,6.14
2018-12-24T08:17:20.719Z,6.11
2018-12-24T08:18:21.113Z,6.16
2018-12-24T08:19:23.469Z,6.19
2018-12-24T08:20:23.972Z,6.16
2018-12-24T08:21:24.435Z,6.32
2018-12-24T08:22:24.920Z,6.18
2018-12-24T08:23:25.472Z,6.29
2018-12-24T08:24:25.968Z,6.29
2018-12-24T08:25:26.525Z,6.33
2018-12-24T08:26:27.009Z,6.28
2018-12-24T08:27:28.564Z,6.33
2018-12-24T08:28:29.049Z,6.40
2018-12-24T08:29:29.621Z,6.32
2018-12-24T08:30:30.093Z,6.36
2018-12-24T08:31:30.643Z,6.50
2018-12-24T08:32:31.129Z,6.53
2018-12-24T08:33:31.614Z,6.62
2018-12-24T08:34:32.197Z,6.63
2018-12-24T08:35:32.685Z,6.58
2018-12-24T08:36:33.269Z,6.63
2018-12-24T08:37:33.645Z,6.56
2018-12-24T08:38:34.151Z,6.68
2018-12-24T08:39:34.621Z,6.62
2018-12-24T08:40:35.100Z,6.62
2018-12-24T08:41:35.587Z,6.66
2018-12-24T08:42:36.070Z,6.59
2018-12-24T08:43:36.554Z,6.53
2018-12-24T08:44:41.728Z,6.61
2018-12-24T08:45:37.598Z,6.66
2018-12-24T08:46:38.097Z,6.68
2018-12-24T08:47:38.643Z,6.71
2018-12-24T08:48:39.118Z,6.63
2018-12-24T08:49:39.600Z,6.76
2018-12-24T08:50:40.073Z,6.73
2018-12-24T08:51:40.555Z,6.77
2018-12-24T08:52:41.073Z,6.79
2018-12-24T08:53:41.554Z,6.83
2018-12-24T08:54:42.047Z,6.84
2018-12-24T08:55:42.522Z,6.86
2018-12-24T08:56:43.000Z,6.84
2018-12-24T08:57:43.505Z,6.83
2018-12-24T08:58:45.474Z,6.95
2018-12-24T08:59:45.951Z,6.98
2018-12-24T09:00:46.431Z,6.98
2018-12-24T09:01:46.932Z,7.12
2018-12-24T09:02:47.436Z,7.08
2018-12-24T09:03:48.372Z,7.09
2018-12-24T09:04:49.294Z,7.08
2018-12-24T09:05:50.392Z,6.98
2018-12-24T09:06:51.146Z,7.04
2018-12-24T09:07:52.008Z,6.97
2018-12-24T09:08:52.696Z,6.84
2018-12-24T09:09:53.345Z,6.83
2018-12-24T09:10:54.161Z,6.86
2018-12-24T09:11:54.789Z,6.83
2018-12-24T09:12:55.600Z,6.80
2018-12-24T09:13:56.326Z,6.87
2018-12-24T09:14:56.943Z,6.90
2018-12-24T09:15:57.588Z,6.83
2018-12-24T09:16:59.305Z,6.89
2018-12-24T09:17:59.959Z,6.81
2018-12-24T09:19:00.647Z,6.76
2018-12-24T09:20:01.310Z,6.63
2018-12-24T09:21:01.956Z,6.43
2018-12-24T09:22:02.620Z,6.47
2018-12-24T09:23:03.341Z,6.44
2018-12-24T09:24:03.997Z,6.32
2018-12-24T09:25:04.689Z,6.33
2018-12-24T09:26:05.443Z,6.30
2018-12-24T09:27:06.139Z,6.40
2018-12-24T09:28:06.788Z,6.48
2018-12-24T09:29:07.498Z,6.48
2018-12-24T09:30:08.127Z,6.46
2018-12-24T09:31:08.927Z,6.62
2018-12-24T09:32:09.564Z,6.72
2018-12-24T09:33:10.211Z,6.80
2018-12-24T09:34:10.864Z,6.86
2018-12-24T09:35:11.539Z,6.81
2018-12-24T09:36:12.165Z,6.91
2018-12-24T09:37:12.827Z,6.99
2018-12-24T09:38:13.482Z,7.08
2018-12-24T09:39:14.129Z,7.12
2018-12-24T09:40:14.799Z,7.15
2018-12-24T09:41:15.507Z,7.23
2018-12-24T09:42:18.166Z,7.31
2018-12-24T09:43:18.820Z,7.35
2018-12-24T09:44:19.574Z,7.38
2018-12-24T09:45:20.133Z,7.47
2018-12-24T09:46:20.776Z,7.49
2018-12-24T09:47:21.421Z,7.44
2018-12-24T09:48:22.084Z,7.58
2018-12-24T09:49:22.738Z,7.71
2018-12-24T09:50:23.384Z,7.77
2018-12-24T09:51:24.038Z,7.77
2018-12-24T09:52:24.689Z,7.72
2018-12-24T09:53:25.394Z,7.82
2018-12-24T09:54:26.050Z,7.82
2018-12-24T09:55:26.764Z,7.93
2018-12-24T09:56:27.434Z,7.94
2018-12-24T09:57:28.097Z,7.97
2018-12-24T09:58:28.753Z,8.03
2018-12-24T09:59:29.437Z,8.00
2018-12-24T10:00:30.095Z,8.04
2018-12-24T10:01:30.743Z,8.07
2018-12-24T10:02:31.389Z,8.21
2018-12-24T10:03:32.045Z,8.21
2018-12-24T10:04:32.709Z,8.04
2018-12-24T10:05:33.358Z,8.17
2018-12-24T10:06:34.006Z,8.20
2018-12-24T10:07:34.661Z,8.20
2018-12-24T10:14:03.460Z,-40.00
2018-12-24T10:15:07.942Z,-40.00
2018-12-24T10:18:37.107Z,-40.00
2018-12-24T10:19:37.701Z,-40.00
2018-12-24T10:22:31.789Z,-40.00
2018-12-24T10:23:32.382Z,-40.00
2018-12-24T10:26:26.463Z,-40.00
2018-12-24T10:27:27.087Z,-40.00
2018-12-24T10:30:22.104Z,-40.00
2018-12-24T10:31:22.700Z,-40.00
2018-12-24T10:34:16.762Z,-40.00
2018-12-24T10:35:17.352Z,-40.00
2018-12-24T10:38:11.418Z,-40.00
2018-12-24T10:39:12.012Z,-40.00
2018-12-24T10:42:06.089Z,-40.00
2018-12-24T10:43:06.692Z,-40.00
2018-12-24T10:50:45.436Z,8.04
2018-12-24T11:24:48.769Z,14.01
2018-12-24T11:25:49.423Z,14.35
2018-12-24T11:26:50.084Z,14.29
2018-12-24T11:27:50.760Z,14.13
2018-12-24T11:28:51.391Z,14.04
2018-12-24T11:29:52.042Z,14.25
2018-12-24T11:30:52.692Z,14.16
2018-12-24T11:31:53.432Z,14.10
2018-12-24T11:32:54.084Z,14.07
2018-12-24T11:33:54.735Z,13.98
2018-12-24T11:34:55.397Z,13.84
2018-12-24T11:35:56.038Z,13.59
2018-12-24T11:36:56.722Z,13.30
2018-12-24T11:37:57.464Z,13.21
2018-12-24T11:38:58.118Z,12.95
2018-12-24T11:39:58.866Z,13.09
2018-12-24T11:40:59.512Z,12.81
2018-12-24T11:42:00.212Z,12.60
2018-12-24T11:43:00.862Z,12.44
2018-12-24T11:44:01.762Z,12.48
2018-12-24T11:45:02.406Z,12.39
2018-12-24T11:46:03.105Z,12.51
2018-12-24T11:47:03.753Z,12.78
2018-12-24T11:48:04.451Z,12.71
2018-12-24T11:49:05.100Z,12.99
2018-12-24T11:50:05.800Z,13.36
2018-12-24T11:51:06.442Z,13.38
2018-12-24T11:52:07.153Z,13.12
2018-12-24T11:53:07.811Z,13.74
2018-12-24T11:54:09.520Z,13.69
2018-12-24T11:55:10.213Z,13.33
2018-12-24T11:56:10.861Z,13.07
2018-12-24T11:57:11.516Z,12.74
2018-12-24T11:58:13.228Z,12.49
2018-12-24T11:59:12.826Z,12.15
2018-12-24T12:00:13.555Z,12.05
2018-12-24T12:01:14.206Z,11.86
2018-12-24T12:02:14.901Z,11.77
2018-12-24T12:03:15.547Z,11.59
2018-12-24T12:04:17.272Z,12.21
2018-12-24T12:05:17.923Z,12.01
2018-12-24T12:06:19.872Z,11.87
2018-12-24T12:07:19.259Z,11.80
2018-12-24T12:08:20.987Z,11.67
2018-12-24T12:09:21.636Z,11.56
2018-12-24T12:10:22.323Z,11.49
2018-12-24T12:11:22.972Z,11.47
2018-12-24T12:12:23.673Z,11.19
2018-12-24T12:13:24.318Z,11.21
2018-12-24T12:14:25.982Z,11.65
2018-12-24T12:15:26.641Z,12.05
2018-12-24T12:16:27.384Z,12.01
2018-12-24T12:17:28.034Z,11.94
2018-12-24T12:18:28.750Z,11.80
2018-12-24T12:19:29.381Z,11.64
2018-12-24T12:20:30.179Z,11.64
2018-12-24T12:21:30.827Z,11.75
2018-12-24T12:22:33.573Z,11.72
2018-12-24T12:23:34.222Z,11.59
2018-12-24T12:24:34.882Z,11.49
2018-12-24T12:25:35.533Z,11.32
2018-12-24T12:26:36.177Z,11.72
2018-12-24T12:27:36.827Z,12.05
2018-12-24T12:28:39.612Z,12.12
2018-12-24T12:29:40.207Z,12.15
2018-12-24T12:30:42.959Z,12.52
2018-12-24T12:31:43.603Z,12.77
2018-12-24T12:32:44.301Z,12.96
2018-12-24T12:33:44.949Z,13.06
2018-12-24T12:34:45.646Z,12.99
2018-12-24T12:35:46.377Z,13.12
2018-12-24T12:36:46.969Z,13.17
2018-12-24T12:37:47.614Z,13.09
2018-12-24T12:38:48.293Z,12.87
2018-12-24T12:39:48.911Z,12.74
2018-12-24T12:40:49.565Z,12.78
2018-12-24T12:41:50.207Z,12.66
2018-12-24T12:42:50.870Z,12.62
2018-12-24T12:43:51.636Z,12.57
2018-12-24T12:44:52.165Z,12.52
2018-12-24T12:45:52.821Z,12.57
2018-12-24T12:46:53.477Z,12.51
2018-12-24T12:47:54.128Z,12.41
2018-12-24T12:48:54.769Z,12.52
2018-12-24T12:49:55.435Z,12.77
2018-12-24T12:50:58.129Z,12.97
2018-12-24T12:51:58.773Z,13.14
2018-12-24T12:52:59.471Z,13.32
2018-12-24T12:54:00.111Z,13.52
2018-12-24T12:55:01.271Z,13.54
2018-12-24T12:56:03.865Z,13.44
2018-12-24T12:57:02.572Z,13.32
2018-12-24T12:58:03.216Z,13.36
2018-12-24T12:59:03.864Z,13.37
2018-12-24T13:00:04.559Z,13.37
2018-12-24T13:01:05.244Z,13.30
2018-12-24T13:02:05.902Z,13.11
2018-12-24T13:03:06.544Z,13.07
2018-12-24T13:04:07.214Z,12.89
2018-12-24T13:05:07.872Z,12.71
2018-12-24T13:06:09.422Z,12.62
2018-12-24T13:07:09.248Z,12.59
2018-12-24T13:08:09.896Z,12.49
2018-12-24T13:09:10.548Z,12.27
2018-12-24T13:10:13.297Z,12.15
2018-12-24T13:11:14.004Z,11.99
2018-12-24T13:12:14.631Z,11.93
2018-12-24T13:13:15.284Z,11.89
2018-12-24T13:14:16.009Z,11.87
2018-12-24T13:15:16.641Z,11.97
2018-12-24T13:16:18.339Z,11.93
2018-12-24T13:17:18.989Z,11.86
2018-12-24T13:18:19.645Z,11.90
2018-12-24T13:19:20.305Z,11.82
2018-12-24T13:20:25.042Z,11.86
2018-12-24T13:21:21.690Z,11.77
2018-12-24T13:22:22.376Z,11.61
2018-12-24T13:23:23.000Z,11.57
2018-12-24T13:24:23.652Z,11.44
2018-12-24T13:25:24.308Z,11.25
2018-12-24T13:26:24.930Z,11.10
2018-12-24T13:27:25.562Z,11.02
2018-12-24T13:28:26.161Z,10.91
2018-12-24T13:29:26.760Z,10.71
2018-12-24T13:30:27.420Z,10.76
2018-12-24T13:31:27.991Z,10.59
2018-12-24T13:32:28.593Z,10.58
2018-12-24T13:33:29.627Z,10.63
2018-12-24T13:34:30.226Z,10.62
2018-12-24T13:35:31.203Z,10.68
2018-12-24T13:36:31.791Z,10.52
2018-12-24T13:37:32.393Z,10.47
2018-12-24T13:38:32.984Z,10.34
2018-12-24T13:39:33.588Z,10.28
2018-12-24T13:40:34.183Z,10.25
2018-12-24T13:41:35.418Z,10.28
2018-12-24T13:42:36.017Z,10.18
2018-12-24T13:43:38.709Z,10.15
2018-12-24T13:44:39.301Z,10.09
2018-12-24T13:45:42.001Z,10.04
2018-12-24T13:46:42.597Z,10.01
2018-12-24T13:47:44.263Z,10.12
2018-12-24T13:48:44.862Z,10.15
2018-12-24T13:49:46.605Z,10.21
2018-12-24T13:50:47.198Z,10.21
2018-12-24T13:51:47.778Z,10.15
2018-12-24T13:52:48.368Z,10.15
2018-12-24T13:53:50.042Z,10.04
2018-12-24T13:54:50.639Z,10.04
2018-12-24T13:55:52.305Z,9.91
2018-12-24T13:56:52.874Z,9.89
2018-12-24T13:57:53.553Z,9.96
2018-12-24T13:58:54.146Z,9.83
2018-12-24T13:59:54.796Z,9.75
2018-12-24T14:00:55.390Z,9.78
2018-12-24T14:01:56.039Z,9.76
2018-12-24T14:02:56.630Z,9.81
2018-12-24T14:03:57.279Z,9.97
2018-12-24T14:04:57.927Z,10.15
2018-12-24T14:05:59.659Z,10.43
2018-12-24T14:07:00.304Z,10.74
2018-12-24T14:08:01.008Z,10.78
2018-12-24T14:09:01.649Z,10.78
2018-12-24T14:10:02.356Z,10.95
2018-12-24T14:11:02.993Z,11.07
2018-12-24T14:12:03.696Z,10.98
2018-12-24T14:13:04.341Z,11.03
2018-12-24T14:14:05.041Z,11.06
2018-12-24T14:15:05.680Z,10.94
2018-12-24T14:16:06.331Z,10.92
2018-12-24T14:17:07.007Z,10.88
2018-12-24T14:18:07.649Z,10.96
2018-12-24T14:19:10.399Z,10.89
2018-12-24T14:20:11.040Z,10.88
2018-12-24T14:21:11.745Z,10.89